Decatur, IL

1:55 PM CDT on June 02, 2015 (GMT -0500)
Sandhill Dr. | | Change Station
CLOSE
Current Station
Personal Weather Station
Location: Decatur, IL
Elevation: 676 ft
Nearby Weather Stations

Elev 676 ft 39.82 °N, 88.92 °W | Updated 1 second ago

Clear
Clear
73.9 °F
Feels Like 75 °F
N
7.7
Wind Variable Wind from ENE
Gusts 7.7 mph

Today
High -- | Low -- °F
--% Chance of Precip.
Yesterday
High -- | Low -- °F
Precip. -- in
5:29 AM 8:18 PM
Full, 100% visible
Pressure 30.11 in
Visibility 10.0 miles
Clouds Clear
Heat Index 75 °F
Dew Point 64 °F
Humidity 72%
Rainfall 0.00 in
Snow Depth Not available.
UV 12 out of 12
Pollen 8.10 out of 12
Air Quality Not available.
Flu Activity Sporadic
METAR KDEC 021754Z 07009KT 040V100 10SM CLR 21/12 A3012 RMK AO2 SLP196 T02060122 10206 20128 58017

More Conditions Fewer Conditions

Pressure 30.11 in
Visibility 10.0 miles
Clouds Clear
Heat Index 75 °F
Dew Point 64 °F
Humidity 72%
Rainfall 0.00 in
Snow Depth Not available.
UV 12 out of 12
Pollen 8.10 out of 12
Air Quality Not available.
Flu Activity Sporadic
METAR KDEC 021754Z 07009KT 040V100 10SM CLR 21/12 A3012 RMK AO2 SLP196 T02060122 10206 20128 58017

More Conditions Fewer Conditions

10-Day Weather Forecast

×

Almanac

Astronomy

Jun. 02, 2015 Rise Set
Actual Time
Civil Twilight
Nautical Twilight
Astronomical Twilight
Moon
Length of Visible Light
Length of Day
Tomorrow will be .
, % of the Moon is Illuminated

Today's Extremes

State Highs State Lows

Community

WunderPhotos

Upload Photos

1,825,997 photos uploaded!

WunderBlogs® & News

Nearby

Air Quality

  Air Quality AQ Index Pollutant
Not available.

Snow Depth

Station Depth Elevation

Earthquake Activity

City Distance Mag. Time & Date
Minimum magnitude displayed is 2.5.

Coastal Water Temperatures

Place Temperature

Stations

Nearby Weather Stations

Station Location Temp. Windchill Dew Point Humidity Wind Precip. Elev Updated Type